Погода Силванияна неделю

Гояс, Бразилия

19 - 25 июля
  • 19июля
    Сегодня
    +12°
    +28°
    Ясно и безоблачно
    ВремяПогодаТемператураВлажностьДавлениеВетер, м/сВероятность осадков
    00:00Ясно и безоблачно+15°C64 %688 мм2.1 м/с5 %
    03:00Ясно и безоблачно+14°C63 %688 мм2.0 м/с5 %
    06:00Ясно и безоблачно+12°C73 %688 мм2.6 м/с5 %
    09:00Ясно и безоблачно+19°C51 %691 мм2.5 м/с5 %
    12:00Ясно и безоблачно+25°C34 %692 мм4.3 м/с5 %
    15:00Ясно и безоблачно+27°C30 %690 мм2.5 м/с5 %
    18:00Ясно и безоблачно+24°C46 %690 мм2.3 м/с5 %
    21:00Ясно и безоблачно+21°C48 %690 мм2.9 м/с5 %
  • 20июля
    Суббота
    +12°
    +28°
    Ясно и безоблачно
    ВремяПогодаТемператураВлажностьДавлениеВетер, м/сВероятность осадков
    00:00Ясно и безоблачно+16°C59 %689 мм2.5 м/с5 %
    03:00Ясно и безоблачно+14°C58 %688 мм2.1 м/с5 %
    06:00Ясно и безоблачно+12°C65 %687 мм2.4 м/с5 %
    09:00Ясно и безоблачно+19°C46 %690 мм3.1 м/с5 %
    12:00Ясно и безоблачно+25°C33 %690 мм3.9 м/с5 %
    15:00Ясно и безоблачно+28°C29 %689 мм2.8 м/с5 %
    18:00Ясно и безоблачно+24°C41 %688 мм1.9 м/с5 %
    21:00Ясно и безоблачно+19°C50 %689 мм2.4 м/с5 %
  • 21июля
    Воскресенье
    +13°
    +28°
    Ясно и безоблачно
    ВремяПогодаТемператураВлажностьДавлениеВетер, м/сВероятность осадков
    00:00Ясно и безоблачно+16°C62 %688 мм2.3 м/с5 %
    03:00Ясно и безоблачно+14°C67 %686 мм2.6 м/с5 %
    06:00Ясно и безоблачно+13°C74 %687 мм2.7 м/с5 %
    09:00Ясно и безоблачно+19°C51 %690 мм3.0 м/с5 %
    12:00Ясно и безоблачно+25°C34 %690 мм4.3 м/с5 %
    15:00Ясно и безоблачно+27°C29 %688 мм3.2 м/с5 %
    18:00Ясно и безоблачно+24°C39 %688 мм2.3 м/с5 %
    21:00Ясно и безоблачно+20°C50 %689 мм2.6 м/с5 %
  • 22июля
    Понедельник
    +12°
    +28°
    Ясно и безоблачно
    ВремяПогодаТемператураВлажностьДавлениеВетер, м/сВероятность осадков
    00:00Ясно и безоблачно+16°C58 %688 мм2.4 м/с5 %
    03:00Ясно и безоблачно+13°C65 %687 мм2.5 м/с5 %
    06:00Ясно и безоблачно+13°C68 %688 мм1.7 м/с5 %
    09:00Ясно и безоблачно+19°C49 %691 мм2.4 м/с5 %
    12:00Ясно и безоблачно+25°C34 %691 мм3.6 м/с5 %
    15:00Ясно и безоблачно+27°C31 %689 мм3.1 м/с5 %
    18:00Ясно и безоблачно+24°C43 %689 мм1.9 м/с5 %
    21:00Ясно и безоблачно+19°C56 %689 мм2.4 м/с5 %
  • 23июля
    Вторник
    +13°
    +28°
    Ясно и безоблачно
    ВремяПогодаТемператураВлажностьДавлениеВетер, м/сВероятность осадков
    00:00Ясно и безоблачно+16°C65 %689 мм2.3 м/с5 %
    03:00Ясно и безоблачно+14°C73 %688 мм2.5 м/с5 %
    06:00Ясно и безоблачно+14°C71 %688 мм1.8 м/с5 %
    09:00Ясно и безоблачно+19°C54 %691 мм2.3 м/с5 %
    12:00Ясно и безоблачно+25°C33 %691 мм4.3 м/с5 %
    15:00Ясно и безоблачно+28°C28 %690 мм3.3 м/с5 %
    18:00Ясно и безоблачно+25°C36 %689 мм2.3 м/с5 %
    21:00Ясно и безоблачно+21°C44 %690 мм2.9 м/с5 %
Мы используем cookies
Соглашаюсь